首页
METAR-TAF:

METAR-TAF

机场 :

Parsons, 田纳西州, 美国

纬度: 35-39-23N, 经度: 088-11-43W, 海拔: 149米

当前天气观测

该预报发布于26分钟前的00:15 UTC
风速5节,风向南转西南
温度 20°C
湿度 88%
气压 1012 hPa
能見度: 16.1公里
阴天层高于1400英尺

METAR: KPVE 160015Z AUTO 20005KT 10SM OVC014 20/18 A2988 RMK A01

时间: 19:41 (00:41 UTC)


TAF: 丢失

超过4000个机场的气象观测和天气预报(METAR&TAF报告)。

可查询的气象台以黄色和红色小点在地图上表示。

将鼠标移到小点上方,可查看气象台名称。

然后点击查看天气观测和预报。

如需切换地图:点击带黑十字的绿色按钮放大地图;点击带横线的绿色按钮缩小地图;或者点击绿色箭头查看邻近地区的地图。


METAR-TAF: